Time;durP1;ratioP1;P1;durP2;ratioP2;P2;SDS_P1;SDS_P2;PMS_P1;PMS_P2;Temp;Humidity;BMP_temperature;BMP_pressure;BME280_temperature;BME280_humidity;BME280_pressure;Samples;Min_cycle;Max_cycle;Signal;HPM_P1;HPM_P2
2023/09/17 00:04:51;;;;;;;11.00;10.00;;;20.70;37.10;;;;;;10255038;28;20310;-76
2023/09/17 00:09:54;;;;;;;8.80;8.10;;;20.70;37.60;;;;;;10260076;28;20274;-77
2023/09/17 00:14:58;;;;;;;10.03;9.27;;;20.70;37.20;;;;;;10256866;28;20342;-77
2023/09/17 00:20:03;;;;;;;8.93;8.23;;;20.70;37.20;;;;;;10258923;28;20725;-76
2023/09/17 00:25:06;;;;;;;9.30;8.47;;;20.70;37.60;;;;;;10257068;28;20695;-77
2023/09/17 00:30:11;;;;;;;8.80;8.00;;;20.60;37.10;;;;;;10256816;28;20223;-77
2023/09/17 00:35:15;;;;;;;8.93;8.23;;;20.60;37.20;;;;;;10253476;28;20227;-77
2023/09/17 00:40:23;;;;;;;8.63;7.93;;;20.60;37.60;;;;;;10261069;28;20234;-77
2023/09/17 00:45:27;;;;;;;7.80;7.20;;;20.60;37.20;;;;;;10252995;28;20985;-77
2023/09/17 00:50:32;;;;;;;8.00;7.40;;;20.60;37.30;;;;;;10255855;28;20228;-77
2023/09/17 00:55:35;;;;;;;8.93;8.10;;;20.60;37.80;;;;;;10245968;28;20240;-77
2023/09/17 01:00:39;;;;;;;8.80;8.10;;;20.60;38.00;;;;;;10249326;28;20239;-76
2023/09/17 01:05:44;;;;;;;8.10;7.30;;;20.60;37.40;;;;;;10252094;28;20242;-77
2023/09/17 01:10:48;;;;;;;7.70;7.10;;;20.60;37.60;;;;;;10259012;28;20226;-77
2023/09/17 01:15:52;;;;;;;6.90;6.40;;;20.60;37.10;;;;;;10260516;28;20228;-76
2023/09/17 01:21:04;;;;;;;8.30;7.60;;;20.60;37.00;;;;;;10255346;28;20224;-76
2023/09/17 01:26:12;;;;;;;8.07;7.37;;;20.60;37.70;;;;;;10265572;28;20769;-76
2023/09/17 01:31:17;;;;;;;7.47;6.87;;;20.60;37.00;;;;;;10263059;28;20577;-77
2023/09/17 01:36:25;;;;;;;7.93;7.33;;;20.60;37.20;;;;;;10261853;28;20315;-76
2023/09/17 01:41:29;;;;;;;6.77;6.20;;;20.50;37.10;;;;;;10257181;28;20997;-76
2023/09/17 01:46:36;;;;;;;6.97;6.43;;;20.50;37.00;;;;;;10258427;28;20228;-76
2023/09/17 01:51:40;;;;;;;7.87;7.33;;;20.40;37.40;;;;;;10258754;28;20251;-76
2023/09/17 01:56:43;;;;;;;7.10;6.60;;;20.30;37.40;;;;;;10265139;28;20233;-76
2023/09/17 02:01:48;;;;;;;7.20;6.60;;;20.30;37.00;;;;;;10265451;28;20239;-77
2023/09/17 02:06:53;;;;;;;7.43;6.83;;;20.20;37.50;;;;;;10258478;28;20224;-76
2023/09/17 02:11:57;;;;;;;8.17;7.47;;;20.20;37.10;;;;;;10259002;28;20220;-76
2023/09/17 02:17:01;;;;;;;7.57;6.97;;;20.10;37.30;;;;;;10262223;28;20235;-77
2023/09/17 02:22:05;;;;;;;8.13;7.50;;;20.10;37.70;;;;;;10259021;28;20235;-75
2023/09/17 02:27:08;;;;;;;8.63;7.80;;;20.00;37.50;;;;;;10259401;28;20251;-76
2023/09/17 02:32:13;;;;;;;8.37;7.70;;;20.00;38.10;;;;;;10260669;28;20224;-76
2023/09/17 02:37:16;;;;;;;6.70;6.17;;;19.80;37.90;;;;;;10255769;28;20251;-76
2023/09/17 02:42:20;;;;;;;8.23;7.63;;;19.70;37.60;;;;;;10265410;28;20239;-74
2023/09/17 02:47:24;;;;;;;7.70;7.10;;;19.60;37.80;;;;;;10260621;28;20848;-74
2023/09/17 02:52:27;;;;;;;7.43;6.90;;;19.60;38.10;;;;;;10264421;28;20239;-74
2023/09/17 02:57:31;;;;;;;7.93;7.33;;;19.50;37.70;;;;;;10258765;28;20611;-74
2023/09/17 03:02:35;;;;;;;7.47;6.80;;;19.50;37.70;;;;;;10257264;28;20263;-74
2023/09/17 03:07:39;;;;;;;7.73;7.13;;;19.40;38.20;;;;;;10254131;28;20240;-74
2023/09/17 03:12:42;;;;;;;8.20;7.30;;;19.20;38.00;;;;;;10261782;28;20306;-76
2023/09/17 03:17:48;;;;;;;8.27;7.57;;;19.00;38.10;;;;;;10262539;28;20232;-76
2023/09/17 03:22:53;;;;;;;8.87;8.07;;;18.80;39.30;;;;;;10258857;28;20263;-76
2023/09/17 03:27:56;;;;;;;7.73;7.20;;;18.60;38.80;;;;;;10259862;28;20227;-76
2023/09/17 03:33:03;;;;;;;6.40;5.80;;;18.40;39.00;;;;;;10258646;28;20641;-76
2023/09/17 03:38:07;;;;;;;6.90;6.40;;;18.30;39.70;;;;;;10252242;28;20231;-76
2023/09/17 03:43:10;;;;;;;7.20;6.50;;;18.40;39.60;;;;;;10257521;28;20611;-76
2023/09/17 03:48:15;;;;;;;6.90;6.30;;;18.40;39.60;;;;;;10257262;28;20314;-76
2023/09/17 03:53:19;;;;;;;7.60;7.00;;;18.50;40.00;;;;;;10256486;28;20237;-76
2023/09/17 03:58:22;;;;;;;6.80;6.27;;;18.60;39.60;;;;;;10252592;28;20317;-74
2023/09/17 04:03:27;;;;;;;6.80;6.20;;;18.70;39.50;;;;;;10253773;28;20235;-73
2023/09/17 04:08:31;;;;;;;7.37;6.80;;;18.70;39.60;;;;;;10255751;28;20220;-74
2023/09/17 04:13:34;;;;;;;8.90;7.03;;;18.80;39.30;;;;;;10256390;28;20229;-73
2023/09/17 04:18:38;;;;;;;7.10;6.60;;;18.80;39.20;;;;;;10257021;28;20239;-74
2023/09/17 04:23:41;;;;;;;6.87;6.33;;;18.80;39.30;;;;;;10256672;28;20242;-76
2023/09/17 04:28:46;;;;;;;7.27;6.67;;;18.80;39.10;;;;;;10246237;28;20232;-73
2023/09/17 04:33:51;;;;;;;5.67;5.27;;;18.90;39.30;;;;;;10250688;28;20310;-74
2023/09/17 04:38:55;;;;;;;6.07;5.67;;;18.80;39.40;;;;;;10252973;28;20236;-73
2023/09/17 04:44:00;;;;;;;6.43;5.93;;;18.90;39.20;;;;;;10254943;28;20603;-73
2023/09/17 04:49:05;;;;;;;7.23;6.63;;;18.90;39.20;;;;;;10256041;28;20228;-74
2023/09/17 04:54:08;;;;;;;7.30;6.60;;;18.90;39.30;;;;;;10261705;28;20231;-74
2023/09/17 04:59:11;;;;;;;7.77;6.20;;;18.80;39.10;;;;;;10252925;28;20342;-76
2023/09/17 05:04:16;;;;;;;6.33;5.83;;;18.70;39.10;;;;;;10259983;28;20228;-76
2023/09/17 05:09:19;;;;;;;6.87;6.27;;;18.60;39.60;;;;;;10262281;28;20316;-76
2023/09/17 05:14:22;;;;;;;7.20;6.50;;;18.60;39.50;;;;;;10260992;28;20266;-76
2023/09/17 05:19:27;;;;;;;7.43;5.87;;;18.60;39.50;;;;;;10261097;28;20255;-76
2023/09/17 05:24:32;;;;;;;6.93;6.33;;;18.60;39.80;;;;;;10264327;28;20239;-76
2023/09/17 05:29:35;;;;;;;7.33;6.73;;;18.50;39.60;;;;;;10264790;28;20228;-76
2023/09/17 05:34:40;;;;;;;6.97;6.37;;;18.60;39.70;;;;;;10257643;28;20236;-76
2023/09/17 05:39:43;;;;;;;7.13;6.20;;;18.60;40.10;;;;;;10263008;28;20823;-77
2023/09/17 05:44:46;;;;;;;10.00;7.10;;;18.60;39.70;;;;;;10259328;28;20250;-77
2023/09/17 05:49:51;;;;;;;7.17;6.20;;;18.60;39.80;;;;;;10267965;28;20297;-77
2023/09/17 05:54:54;;;;;;;10.70;7.17;;;18.60;40.30;;;;;;10256516;28;20244;-77
2023/09/17 05:59:58;;;;;;;9.97;7.70;;;18.70;40.20;;;;;;10257966;28;20220;-77
2023/09/17 06:05:03;;;;;;;8.23;6.93;;;18.70;40.50;;;;;;10255470;28;20238;-77
2023/09/17 06:10:07;;;;;;;8.23;7.53;;;18.70;41.00;;;;;;10252033;28;20219;-76
2023/09/17 06:15:11;;;;;;;8.17;7.37;;;18.70;41.10;;;;;;10257608;28;20244;-75
2023/09/17 06:20:15;;;;;;;8.47;7.67;;;18.70;41.10;;;;;;10257956;28;20236;-76
2023/09/17 06:25:19;;;;;;;10.37;9.57;;;18.70;41.70;;;;;;10254930;28;20896;-77
2023/09/17 06:30:22;;;;;;;9.53;8.73;;;18.80;41.60;;;;;;10250412;28;20240;-76
2023/09/17 06:35:27;;;;;;;9.00;8.33;;;18.80;41.60;;;;;;10258343;28;20228;-76
2023/09/17 06:40:32;;;;;;;10.50;9.70;;;18.90;42.30;;;;;;10255338;28;20235;-76
2023/09/17 06:45:35;;;;;;;9.90;9.10;;;19.00;42.10;;;;;;10256403;28;20272;-75
2023/09/17 06:50:40;;;;;;;10.97;10.07;;;19.00;42.30;;;;;;10250934;28;20231;-76
2023/09/17 06:55:43;;;;;;;11.00;10.10;;;19.20;43.10;;;;;;10257191;28;20227;-76
2023/09/17 07:00:48;;;;;;;11.47;10.43;;;19.20;42.60;;;;;;10253781;28;20228;-76
2023/09/17 07:05:53;;;;;;;13.00;12.00;;;19.30;43.60;;;;;;10256707;28;20799;-76
2023/09/17 07:10:56;;;;;;;12.70;11.67;;;19.40;43.70;;;;;;10257646;28;20224;-76
2023/09/17 07:16:00;;;;;;;13.50;12.40;;;19.50;43.00;;;;;;10257533;28;20225;-76
2023/09/17 07:21:05;;;;;;;14.23;13.03;;;19.60;43.30;;;;;;10252309;28;20231;-76
2023/09/17 07:26:09;;;;;;;14.97;13.70;;;19.70;44.00;;;;;;10255768;28;20228;-75
2023/09/17 07:31:12;;;;;;;14.83;13.53;;;19.90;43.80;;;;;;10257837;28;20937;-75
2023/09/17 07:36:16;;;;;;;13.53;12.50;;;19.90;44.20;;;;;;10248402;28;20311;-74
2023/09/17 07:41:20;;;;;;;14.53;13.33;;;20.10;45.10;;;;;;10252068;28;20940;-73
2023/09/17 07:46:23;;;;;;;13.87;12.77;;;20.20;45.00;;;;;;10253482;28;20330;-73
2023/09/17 07:51:28;;;;;;;13.87;12.77;;;20.40;45.40;;;;;;10249034;28;20232;-77
2023/09/17 07:56:31;;;;;;;15.03;13.73;;;20.70;46.20;;;;;;10256927;28;20224;-73
2023/09/17 08:01:34;;;;;;;15.50;14.00;;;21.00;46.00;;;;;;10245006;28;20315;-73
2023/09/17 08:06:39;;;;;;;16.00;14.67;;;21.30;46.00;;;;;;10249491;28;20771;-73
2023/09/17 08:11:43;;;;;;;16.57;15.17;;;21.60;46.30;;;;;;10250652;28;20238;-73
2023/09/17 08:16:46;;;;;;;14.63;13.43;;;21.90;45.90;;;;;;10255727;28;20231;-73
2023/09/17 08:21:51;;;;;;;14.70;13.50;;;22.20;45.60;;;;;;10248743;28;20424;-73
2023/09/17 08:26:54;;;;;;;15.37;14.07;;;22.50;45.80;;;;;;10255839;28;20232;-73
2023/09/17 08:31:58;;;;;;;16.10;14.60;;;22.80;45.40;;;;;;10251573;28;20230;-73
2023/09/17 08:37:04;;;;;;;15.73;14.33;;;23.10;45.20;;;;;;10251551;28;20339;-75
2023/09/17 08:42:08;;;;;;;15.27;14.07;;;23.30;45.50;;;;;;10257953;28;20260;-75
2023/09/17 08:47:11;;;;;;;16.27;14.87;;;23.60;45.10;;;;;;10257006;28;20231;-76
2023/09/17 08:52:18;;;;;;;15.80;14.50;;;23.90;45.00;;;;;;10257368;28;20603;-74
2023/09/17 08:57:23;;;;;;;13.57;12.47;;;24.10;44.70;;;;;;10250466;28;20231;-75
2023/09/17 09:02:31;;;;;;;13.47;12.37;;;24.40;44.50;;;;;;10256324;28;20650;-74
2023/09/17 09:07:36;;;;;;;13.87;12.77;;;24.60;43.80;;;;;;10249951;28;20227;-75
2023/09/17 09:12:42;;;;;;;14.77;13.47;;;24.80;43.40;;;;;;10233617;28;20232;-75
2023/09/17 09:17:45;;;;;;;14.37;13.17;;;24.90;42.80;;;;;;10229492;28;20236;-75
2023/09/17 09:22:49;;;;;;;13.50;12.43;;;25.00;42.60;;;;;;10233308;28;20227;-75
2023/09/17 09:27:53;;;;;;;12.23;11.27;;;25.10;43.10;;;;;;10223438;28;20220;-75
2023/09/17 09:32:57;;;;;;;12.87;11.77;;;25.20;43.20;;;;;;10253602;28;20244;-73
2023/09/17 09:38:03;;;;;;;11.60;10.77;;;25.40;43.00;;;;;;10267194;28;20232;-72
2023/09/17 09:43:06;;;;;;;10.33;9.50;;;25.70;42.50;;;;;;10269283;28;20956;-73
2023/09/17 09:48:14;;;;;;;11.00;10.10;;;26.00;42.60;;;;;;10271343;28;20303;-73
2023/09/17 09:53:20;;;;;;;10.23;9.33;;;26.20;41.70;;;;;;10268340;28;20229;-75
2023/09/17 09:58:25;;;;;;;11.13;10.33;;;26.40;41.80;;;;;;10271158;28;20235;-75
2023/09/17 10:03:28;;;;;;;11.27;10.43;;;26.60;42.00;;;;;;10269453;28;20585;-75
2023/09/17 10:08:34;;;;;;;10.10;8.67;;;26.80;41.60;;;;;;10272628;28;20233;-78
2023/09/17 10:13:38;;;;;;;9.70;9.00;;;27.10;41.20;;;;;;10263661;28;20237;-73
2023/09/17 10:18:43;;;;;;;10.40;9.50;;;27.30;41.00;;;;;;10262612;28;20774;-73
2023/09/17 10:23:48;;;;;;;9.07;8.37;;;27.50;40.60;;;;;;10267261;28;20246;-73
2023/09/17 10:28:56;;;;;;;8.60;7.90;;;27.70;40.30;;;;;;10265344;28;20311;-73
2023/09/17 10:34:01;;;;;;;8.37;7.77;;;28.00;40.40;;;;;;10262254;28;20752;-73
2023/09/17 10:39:09;;;;;;;8.30;7.67;;;28.20;39.60;;;;;;10264342;28;20258;-73
2023/09/17 10:44:15;;;;;;;8.43;7.80;;;28.30;38.20;;;;;;10265896;28;20228;-73
2023/09/17 10:49:19;;;;;;;10.37;7.60;;;28.50;38.40;;;;;;10261150;28;20224;-73
2023/09/17 10:54:24;;;;;;;8.33;7.70;;;28.60;38.50;;;;;;10268239;28;20231;-73
2023/09/17 10:59:29;;;;;;;7.13;6.63;;;28.70;37.60;;;;;;10264859;28;20250;-73
2023/09/17 11:04:33;;;;;;;6.57;6.17;;;28.90;37.90;;;;;;10264879;28;20259;-73
2023/09/17 11:09:37;;;;;;;7.27;6.70;;;29.00;37.80;;;;;;10264622;28;20236;-73
2023/09/17 11:14:41;;;;;;;6.33;5.93;;;29.10;36.80;;;;;;10264466;28;20236;-73
2023/09/17 11:19:45;;;;;;;6.57;6.17;;;29.20;37.00;;;;;;10260524;28;20223;-73
2023/09/17 11:24:51;;;;;;;6.93;6.37;;;29.30;36.80;;;;;;10262934;28;20702;-73
2023/09/17 11:29:54;;;;;;;5.27;4.80;;;29.40;35.50;;;;;;10268683;28;20219;-73
2023/09/17 11:34:58;;;;;;;4.77;4.47;;;29.40;35.50;;;;;;10265584;28;20238;-73
2023/09/17 11:40:10;;;;;;;5.00;4.60;;;29.50;35.20;;;;;;10257761;28;20622;-74
2023/09/17 11:45:14;;;;;;;4.33;4.03;;;29.60;33.90;;;;;;10259970;28;20862;-72
2023/09/17 11:50:20;;;;;;;3.50;3.30;;;29.60;34.40;;;;;;10259686;28;20234;-73
2023/09/17 11:55:25;;;;;;;4.00;3.80;;;29.70;33.30;;;;;;10263014;28;20227;-71
2023/09/17 12:00:29;;;;;;;3.90;3.60;;;29.80;33.10;;;;;;10260988;28;20228;-70
2023/09/17 12:05:34;;;;;;;3.50;3.30;;;29.90;32.90;;;;;;10259515;28;20787;-71
2023/09/17 12:16:05;;;;;;;3.57;3.37;;;29.90;31.50;;;;;;10253098;28;20223;-71
2023/09/17 12:21:19;;;;;;;3.53;3.33;;;30.00;32.50;;;;;;10260284;28;20227;-71
2023/09/17 12:27:24;;;;;;;3.50;3.30;;;30.00;31.50;;;;;;10262489;28;20239;-74
2023/09/17 12:32:30;;;;;;;3.70;3.40;;;30.10;30.20;;;;;;10135311;29;20234;-71
2023/09/17 12:37:33;;;;;;;3.30;3.10;;;30.10;31.60;;;;;;10242679;28;20840;-71
2023/09/17 12:42:38;;;;;;;3.63;3.43;;;30.20;31.70;;;;;;10250649;28;20236;-73
2023/09/17 12:47:42;;;;;;;3.80;3.60;;;30.20;31.50;;;;;;10262479;28;20231;-75
2023/09/17 12:52:45;;;;;;;3.80;3.60;;;30.30;31.70;;;;;;10264866;28;20250;-73
2023/09/17 12:57:50;;;;;;;3.60;3.40;;;30.30;31.70;;;;;;10258816;28;20953;-73
2023/09/17 13:02:54;;;;;;;3.47;3.17;;;30.30;30.00;;;;;;10252719;28;20223;-73
2023/09/17 13:07:58;;;;;;;3.10;2.90;;;30.30;30.30;;;;;;10261038;28;20444;-75
2023/09/17 13:13:05;;;;;;;3.40;3.20;;;30.30;30.30;;;;;;10270063;28;20785;-72
2023/09/17 13:18:09;;;;;;;3.30;3.10;;;30.30;28.90;;;;;;10267169;28;20360;-73
2023/09/17 13:23:13;;;;;;;3.20;3.00;;;30.30;29.70;;;;;;10262238;28;20282;-73
2023/09/17 13:28:19;;;;;;;2.97;2.73;;;30.30;29.60;;;;;;10265184;28;20247;-72
2023/09/17 13:33:22;;;;;;;2.60;2.47;;;30.30;28.50;;;;;;10268392;28;20227;-73
2023/09/17 13:38:26;;;;;;;2.87;2.73;;;30.30;28.90;;;;;;10265643;28;20224;-73
2023/09/17 13:43:30;;;;;;;2.80;2.60;;;30.30;28.80;;;;;;10267809;28;20240;-72
2023/09/17 13:48:34;;;;;;;3.00;2.80;;;30.40;28.30;;;;;;10265000;28;20231;-72
2023/09/17 13:53:37;;;;;;;3.00;2.80;;;30.50;29.00;;;;;;10263223;28;20235;-72
2023/09/17 13:58:42;;;;;;;3.13;2.83;;;30.40;28.90;;;;;;10266636;28;20223;-72
2023/09/17 14:03:45;;;;;;;3.57;3.27;;;30.50;28.60;;;;;;10262680;28;20234;-72
2023/09/17 14:08:49;;;;;;;3.27;3.00;;;30.60;29.20;;;;;;10266202;28;20238;-72
2023/09/17 14:13:54;;;;;;;3.30;3.10;;;30.60;28.80;;;;;;10267354;28;20228;-72
2023/09/17 14:18:57;;;;;;;3.20;3.00;;;30.60;28.40;;;;;;10261714;28;20275;-72
2023/09/17 14:24:01;;;;;;;3.30;3.10;;;30.60;28.80;;;;;;10264519;28;20315;-72
2023/09/17 14:29:05;;;;;;;3.30;3.10;;;30.60;28.80;;;;;;10261506;28;20712;-73
2023/09/17 14:34:08;;;;;;;3.00;2.80;;;30.60;28.50;;;;;;10265041;28;20230;-72
2023/09/17 14:39:12;;;;;;;3.60;3.20;;;30.60;28.30;;;;;;10263019;28;20330;-73
2023/09/17 14:44:16;;;;;;;2.73;2.63;;;30.60;28.20;;;;;;10261629;28;20779;-71
2023/09/17 14:49:19;;;;;;;3.13;2.73;;;30.60;27.90;;;;;;10262826;28;20228;-71
2023/09/17 14:54:22;;;;;;;3.90;2.90;;;30.60;28.40;;;;;;10266209;28;20228;-71
2023/09/17 14:59:28;;;;;;;3.23;3.03;;;30.60;28.30;;;;;;10267498;28;20600;-71
2023/09/17 15:04:32;;;;;;;3.30;3.10;;;30.70;28.00;;;;;;10270804;28;20928;-71
2023/09/17 15:09:35;;;;;;;3.00;2.80;;;30.80;28.30;;;;;;10258845;28;20282;-70
2023/09/17 15:14:40;;;;;;;3.57;3.37;;;30.80;28.00;;;;;;10261332;28;20282;-71
2023/09/17 15:19:43;;;;;;;3.20;3.00;;;30.80;27.70;;;;;;10270755;28;20327;-70
2023/09/17 15:24:47;;;;;;;3.13;2.90;;;30.80;28.00;;;;;;10264273;28;20242;-70
2023/09/17 15:29:51;;;;;;;3.17;2.97;;;30.80;27.80;;;;;;10269052;28;20334;-71
2023/09/17 15:34:56;;;;;;;3.00;2.80;;;30.80;27.60;;;;;;10267989;28;20227;-71
2023/09/17 15:39:59;;;;;;;3.10;2.90;;;30.80;27.80;;;;;;10266628;28;20322;-71
2023/09/17 15:45:04;;;;;;;3.10;2.80;;;30.70;27.50;;;;;;10265714;28;20228;-72
2023/09/17 15:50:09;;;;;;;3.10;2.90;;;30.60;27.10;;;;;;10263438;28;20653;-72
2023/09/17 15:55:13;;;;;;;3.40;2.60;;;30.50;27.40;;;;;;10258723;28;20231;-72
2023/09/17 16:00:17;;;;;;;2.47;2.37;;;30.50;27.50;;;;;;10255472;28;20228;-72
2023/09/17 16:05:22;;;;;;;2.93;2.43;;;30.50;27.20;;;;;;10258364;28;20617;-71
2023/09/17 16:10:25;;;;;;;2.67;2.53;;;30.40;27.20;;;;;;10258109;28;20230;-72
2023/09/17 16:15:30;;;;;;;2.70;2.60;;;30.30;27.30;;;;;;10259569;28;20319;-73
2023/09/17 16:20:33;;;;;;;2.70;2.50;;;30.30;27.10;;;;;;10262925;28;20255;-73
2023/09/17 16:25:36;;;;;;;2.60;2.40;;;30.30;27.20;;;;;;10260202;28;20244;-73
2023/09/17 16:30:41;;;;;;;2.67;2.50;;;30.20;27.20;;;;;;10258292;28;20318;-72
2023/09/17 16:35:47;;;;;;;2.50;2.40;;;30.20;27.20;;;;;;10259194;28;20330;-72
2023/09/17 16:40:50;;;;;;;3.20;3.00;;;30.20;27.40;;;;;;10261112;28;20259;-72
2023/09/17 16:45:55;;;;;;;3.00;2.80;;;30.10;27.50;;;;;;10270725;28;20243;-73
2023/09/17 16:50:58;;;;;;;2.87;2.67;;;30.10;27.50;;;;;;10267931;28;20231;-73
2023/09/17 16:56:05;;;;;;;2.83;2.63;;;30.00;27.80;;;;;;10268427;28;20608;-73
2023/09/17 17:01:11;;;;;;;3.20;2.90;;;29.90;27.90;;;;;;10266856;28;20298;-73
2023/09/17 17:06:14;;;;;;;2.90;2.70;;;29.90;27.90;;;;;;10263497;28;20239;-73
2023/09/17 17:11:17;;;;;;;3.10;2.90;;;29.80;28.00;;;;;;10268269;28;20622;-73
2023/09/17 17:16:22;;;;;;;3.40;3.17;;;29.80;28.10;;;;;;10265059;28;20283;-73
2023/09/17 17:21:25;;;;;;;5.10;3.33;;;29.70;28.30;;;;;;10269049;28;20235;-72
2023/09/17 17:26:28;;;;;;;3.90;3.60;;;29.60;28.40;;;;;;10272100;28;20677;-73
2023/09/17 17:31:33;;;;;;;3.87;3.57;;;29.50;28.40;;;;;;10272724;28;21005;-73
2023/09/17 17:36:36;;;;;;;4.00;3.70;;;29.50;28.60;;;;;;10273153;28;20267;-73
2023/09/17 17:41:40;;;;;;;5.83;3.60;;;29.40;28.60;;;;;;10268589;28;20848;-73
2023/09/17 17:46:44;;;;;;;4.10;3.80;;;29.30;28.60;;;;;;10266229;28;20787;-72
2023/09/17 17:51:48;;;;;;;4.10;3.70;;;29.20;28.70;;;;;;10268742;28;20236;-72
2023/09/17 17:56:51;;;;;;;4.37;3.97;;;29.00;28.70;;;;;;10268059;28;20233;-73
2023/09/17 18:01:56;;;;;;;4.60;4.30;;;28.90;28.90;;;;;;10265717;28;20225;-73
2023/09/17 18:06:59;;;;;;;4.40;4.10;;;28.80;29.20;;;;;;10275796;28;20282;-73
2023/09/17 18:12:03;;;;;;;4.40;4.07;;;28.70;29.20;;;;;;10266463;28;20258;-74
2023/09/17 18:17:07;;;;;;;4.03;3.77;;;28.50;29.40;;;;;;10273754;28;20239;-74
2023/09/17 18:22:11;;;;;;;4.33;4.03;;;28.40;29.70;;;;;;10262803;28;20228;-73
2023/09/17 18:27:17;;;;;;;4.13;3.83;;;28.20;29.70;;;;;;10262309;28;20615;-73
2023/09/17 18:32:24;;;;;;;3.73;3.50;;;28.10;29.90;;;;;;10270073;28;20227;-73
2023/09/17 18:37:28;;;;;;;4.50;4.10;;;28.00;30.20;;;;;;10267157;28;20627;-73
2023/09/17 18:42:33;;;;;;;4.37;4.07;;;27.80;30.10;;;;;;10267120;28;20358;-73
2023/09/17 18:47:37;;;;;;;4.03;3.73;;;27.60;30.00;;;;;;10263073;28;20235;-73
2023/09/17 18:52:41;;;;;;;4.40;4.00;;;27.50;30.00;;;;;;10262735;28;20595;-73
2023/09/17 18:57:44;;;;;;;4.47;4.07;;;27.40;30.00;;;;;;10268636;28;20231;-73
2023/09/17 19:02:50;;;;;;;4.77;4.37;;;27.30;30.10;;;;;;10271090;28;20223;-73
2023/09/17 19:07:54;;;;;;;4.40;4.10;;;27.20;30.70;;;;;;10259414;28;21310;-75
2023/09/17 19:12:58;;;;;;;4.50;4.20;;;27.10;30.40;;;;;;10265254;28;20324;-75
2023/09/17 19:18:02;;;;;;;4.67;4.27;;;27.00;30.60;;;;;;10268367;28;20228;-75
2023/09/17 19:23:06;;;;;;;4.87;4.40;;;26.90;31.00;;;;;;10264732;28;20242;-75
2023/09/17 19:28:10;;;;;;;6.33;5.83;;;26.80;31.00;;;;;;10260557;28;20239;-74
2023/09/17 19:33:16;;;;;;;9.57;8.70;;;26.60;31.30;;;;;;10265513;28;20234;-74
2023/09/17 19:38:20;;;;;;;7.10;6.50;;;26.50;31.70;;;;;;10268312;28;20216;-75
2023/09/17 19:43:23;;;;;;;6.80;6.33;;;26.30;31.60;;;;;;10267221;28;20712;-75
2023/09/17 19:48:28;;;;;;;5.70;5.30;;;26.20;31.90;;;;;;10263095;28;20223;-75
2023/09/17 19:53:32;;;;;;;5.23;4.83;;;26.00;32.40;;;;;;10265543;28;20238;-74
2023/09/17 19:58:35;;;;;;;4.37;4.17;;;26.00;32.40;;;;;;10241258;28;20231;-76
2023/09/17 20:03:40;;;;;;;4.80;4.47;;;25.90;32.40;;;;;;10247499;28;20894;-73
2023/09/17 20:08:43;;;;;;;4.90;4.60;;;25.80;32.80;;;;;;10245954;28;20227;-75
2023/09/17 20:13:46;;;;;;;5.20;4.90;;;25.70;32.70;;;;;;10241490;28;20240;-73
2023/09/17 20:18:59;;;;;;;5.27;4.87;;;25.60;32.90;;;;;;10240075;28;20227;-73
2023/09/17 20:24:04;;;;;;;5.23;4.83;;;25.50;33.40;;;;;;10234421;28;21073;-73
2023/09/17 20:29:08;;;;;;;5.43;5.03;;;25.40;33.10;;;;;;10242813;28;20227;-73
2023/09/17 20:34:14;;;;;;;6.23;5.73;;;25.30;33.40;;;;;;10239409;28;20227;-75
2023/09/17 20:39:18;;;;;;;6.70;6.20;;;25.20;34.20;;;;;;10241799;28;20223;-73
2023/09/17 20:44:24;;;;;;;6.60;6.00;;;25.20;33.90;;;;;;10243763;28;20228;-73
2023/09/17 20:49:29;;;;;;;8.17;7.47;;;25.10;33.80;;;;;;10250135;28;20326;-73
2023/09/17 20:54:33;;;;;;;6.80;6.20;;;24.90;34.40;;;;;;10250840;28;20241;-73
2023/09/17 20:59:39;;;;;;;6.17;5.67;;;24.90;34.10;;;;;;10254865;28;20237;-75
2023/09/17 21:04:46;;;;;;;5.70;5.30;;;24.80;34.90;;;;;;10253259;28;20224;-74
2023/09/17 21:09:49;;;;;;;5.83;5.43;;;24.80;34.90;;;;;;10254020;28;20243;-75
2023/09/17 21:14:52;;;;;;;6.43;5.93;;;24.80;34.20;;;;;;10256658;28;20232;-75
2023/09/17 21:19:57;;;;;;;6.33;5.80;;;24.70;34.30;;;;;;10260986;28;20596;-76
2023/09/17 21:25:01;;;;;;;6.20;5.70;;;24.60;34.70;;;;;;10255354;28;20228;-75
2023/09/17 21:30:04;;;;;;;6.17;5.77;;;24.60;34.30;;;;;;10261731;28;20242;-75
2023/09/17 21:35:11;;;;;;;6.77;6.33;;;24.60;34.40;;;;;;10263421;28;20318;-75
2023/09/17 21:40:15;;;;;;;6.23;5.73;;;24.60;34.90;;;;;;10255403;28;20224;-75
2023/09/17 21:45:19;;;;;;;6.60;6.07;;;24.50;34.50;;;;;;10255717;28;20239;-75
2023/09/17 21:50:24;;;;;;;6.10;5.70;;;24.50;34.50;;;;;;10273351;28;20242;-76
2023/09/17 21:55:27;;;;;;;5.40;5.00;;;24.40;34.70;;;;;;10261829;28;20238;-75
2023/09/17 22:00:30;;;;;;;5.60;5.10;;;24.30;34.40;;;;;;10257486;28;20239;-75
2023/09/17 22:05:37;;;;;;;5.70;5.20;;;24.30;34.50;;;;;;10266827;28;20239;-75
2023/09/17 22:10:40;;;;;;;5.80;5.40;;;24.20;34.90;;;;;;10259430;28;20249;-75
2023/09/17 22:15:43;;;;;;;5.97;5.57;;;24.10;34.80;;;;;;10266052;28;20237;-75
2023/09/17 22:20:48;;;;;;;6.33;5.83;;;24.10;34.90;;;;;;10254322;28;20231;-75
2023/09/17 22:25:51;;;;;;;6.00;5.60;;;23.90;35.20;;;;;;10268940;28;20245;-75
2023/09/17 22:30:55;;;;;;;5.63;5.23;;;23.80;35.00;;;;;;10258971;28;20235;-76
2023/09/17 22:36:01;;;;;;;5.93;5.53;;;23.70;35.20;;;;;;10266786;28;20306;-75
2023/09/17 22:41:04;;;;;;;6.90;6.40;;;23.60;35.60;;;;;;10259332;28;20899;-76
2023/09/17 22:46:07;;;;;;;6.40;6.00;;;23.60;35.40;;;;;;10255510;28;20224;-75
2023/09/17 22:51:12;;;;;;;6.40;5.80;;;23.50;35.40;;;;;;10260844;28;21080;-75
2023/09/17 22:56:15;;;;;;;6.27;5.87;;;23.40;35.80;;;;;;10256680;28;20235;-76
2023/09/17 23:01:19;;;;;;;5.87;5.47;;;23.40;35.50;;;;;;10258364;28;20228;-76
2023/09/17 23:06:24;;;;;;;6.40;5.80;;;23.30;35.50;;;;;;10257464;28;20260;-76
2023/09/17 23:11:27;;;;;;;5.77;5.27;;;23.30;36.00;;;;;;10256924;28;21128;-76
2023/09/17 23:16:30;;;;;;;5.83;5.43;;;23.20;35.50;;;;;;10255945;28;20302;-76
2023/09/17 23:21:36;;;;;;;6.73;6.23;;;23.10;35.60;;;;;;10247622;28;20236;-76
2023/09/17 23:26:40;;;;;;;7.20;6.67;;;23.00;36.30;;;;;;10255826;28;20240;-76
2023/09/17 23:31:44;;;;;;;7.00;6.30;;;22.90;36.00;;;;;;10258426;28;20227;-76
2023/09/17 23:36:48;;;;;;;6.73;6.23;;;22.80;36.20;;;;;;10254316;28;20230;-75
2023/09/17 23:41:53;;;;;;;7.00;6.40;;;22.70;36.80;;;;;;10252453;28;20792;-75
2023/09/17 23:46:56;;;;;;;7.17;6.57;;;22.60;36.50;;;;;;10253634;28;20235;-75
2023/09/17 23:52:01;;;;;;;7.87;7.27;;;22.50;36.60;;;;;;10260469;28;20231;-76
2023/09/17 23:57:05;;;;;;;7.90;7.20;;;22.40;36.90;;;;;;10257488;28;21170;-75
